Essex Junction, Vermont
Current Conditions -  °F | °C
As of 5:54 PM on Wednesday 22 Oct 2014 (Local Time) from KBTV Reporting Station
Broken Clouds Broken Clouds  
Wind Chill: 53°   Ceiling: 11000
Heat Index: 53°   Visibility: 10mi
Dew Point: 42°   Wind: 12mph
Humidity: 66%   Direction: 340°NNW
Pressure: 30.14"   Gusts: NA
Location:  44.49°N, 73.11°W
Report Text: KBTV 222154Z 34010KT 10SM BKN110 12/06 A3014 RMK AO2 SLP208 T01170056
Loading
Personal Weather Stations






























Interactive Weather Map New forecast layout! Learn more

10-Day Weather Forecast

Advertisements
Track Severe Weather on mobile